Time;durP1;ratioP1;P1;durP2;ratioP2;P2;SDS_P1;SDS_P2;PMS_P1;PMS_P2;Temp;Humidity;BMP_temperature;BMP_pressure;BME280_temperature;BME280_humidity;BME280_pressure;Samples;Min_cycle;Max_cycle;Signal;HPM_P1;HPM_P2
2022/03/14 00:01:15;;;;;;;29.00;12.27;;;;;;;-0.04;73.90;101425.31;5104242;28;20066;-87
2022/03/14 00:03:50;;;;;;;25.00;12.30;;;;;;;-0.02;73.31;101426.22;5094501;28;20490;-86
2022/03/14 00:06:18;;;;;;;24.85;11.52;;;;;;;-0.16;73.75;101426.06;5105418;28;20039;-86
2022/03/14 00:08:47;;;;;;;24.77;11.82;;;;;;;-0.03;74.00;101429.75;5099848;27;20044;-85
2022/03/14 00:11:15;;;;;;;28.48;12.27;;;;;;;-0.08;73.85;101424.41;5112948;28;20047;-85
2022/03/14 00:13:43;;;;;;;26.40;11.77;;;;;;;-0.21;73.98;101426.00;5095538;28;20407;-85
2022/03/14 00:16:13;;;;;;;24.65;12.25;;;;;;;-0.17;74.45;101426.94;5112336;28;20051;-86
2022/03/14 00:18:43;;;;;;;25.25;11.82;;;;;;;-0.14;73.97;101424.31;5096183;27;20418;-86
2022/03/14 00:21:10;;;;;;;25.15;12.35;;;;;;;-0.16;74.84;101423.41;5110643;28;20492;-75
2022/03/14 00:23:38;;;;;;;24.35;12.07;;;;;;;-0.15;74.05;101423.41;5094706;28;20432;-86
2022/03/14 00:26:07;;;;;;;25.80;12.80;;;;;;;-0.10;74.34;101415.53;5114115;27;20050;-86
2022/03/14 00:28:35;;;;;;;25.40;12.52;;;;;;;-0.14;74.42;101405.72;5093686;28;20044;-86
2022/03/14 00:31:03;;;;;;;26.30;12.80;;;;;;;-0.10;74.40;101415.53;5114342;27;20043;-86
2022/03/14 00:33:30;;;;;;;27.05;12.70;;;;;;;-0.08;73.72;101416.44;5093884;28;20122;-86
2022/03/14 00:35:58;;;;;;;25.63;13.85;;;;;;;-0.24;74.30;101419.75;5113810;28;20046;-86
2022/03/14 00:38:25;;;;;;;27.92;13.85;;;;;;;-0.15;74.43;101423.41;5113735;27;20551;-86
2022/03/14 00:40:53;;;;;;;25.45;13.35;;;;;;;-0.10;74.07;101419.94;5094734;28;20467;-85
2022/03/14 00:43:22;;;;;;;30.88;14.60;;;;;;;-0.17;74.66;101411.00;5093524;28;20048;-86
2022/03/14 00:45:49;;;;;;;26.20;13.60;;;;;;;-0.17;73.77;101418.97;5110490;28;20108;-85
2022/03/14 00:48:17;;;;;;;26.42;13.35;;;;;;;-0.24;74.78;101411.78;5099594;28;20043;-86
2022/03/14 00:50:44;;;;;;;29.90;14.50;;;;;;;-0.13;74.54;101417.22;5109016;28;20138;-85
2022/03/14 00:53:12;;;;;;;28.73;13.88;;;;;;;-0.10;74.64;101418.19;5098622;28;20040;-86
2022/03/14 00:55:39;;;;;;;26.80;14.02;;;;;;;-0.25;75.18;101420.59;5109256;28;20044;-86
2022/03/14 00:58:07;;;;;;;25.88;13.35;;;;;;;-0.13;74.67;101415.47;5097663;28;20096;-86
2022/03/14 01:00:37;;;;;;;27.42;14.40;;;;;;;-0.24;74.73;101412.69;5110471;27;20048;-87
2022/03/14 01:03:04;;;;;;;27.65;13.55;;;;;;;-0.25;74.58;101412.66;5097006;28;20482;-85
2022/03/14 01:05:32;;;;;;;25.08;13.75;;;;;;;-0.26;74.83;101413.50;5110807;27;20067;-86
2022/03/14 01:07:59;;;;;;;26.83;14.27;;;;;;;-0.26;75.20;101411.78;5096440;28;20097;-86
2022/03/14 01:10:28;;;;;;;28.77;14.07;;;;;;;-0.24;74.74;101409.13;5111065;28;20420;-86
2022/03/14 01:12:57;;;;;;;30.02;14.35;;;;;;;-0.27;75.08;101411.72;5099612;28;20049;-75
2022/03/14 01:15:24;;;;;;;25.85;13.70;;;;;;;-0.24;74.45;101411.78;5113686;27;20048;-82
2022/03/14 01:17:54;;;;;;;26.95;13.75;;;;;;;-0.31;75.06;101411.69;5103632;27;20040;-87
2022/03/14 01:20:22;;;;;;;29.25;13.75;;;;;;;-0.28;74.63;101424.13;5093193;28;20048;-87
2022/03/14 01:22:49;;;;;;;24.45;13.60;;;;;;;-0.24;74.33;101422.41;5105984;28;20044;-85
2022/03/14 01:25:17;;;;;;;27.10;14.13;;;;;;;-0.23;74.36;101424.19;5108250;27;20109;-87
2022/03/14 01:27:45;;;;;;;27.40;14.27;;;;;;;-0.26;74.82;101427.72;5106407;28;20048;-86
2022/03/14 01:30:14;;;;;;;27.35;14.35;;;;;;;-0.30;75.16;101429.41;5109224;27;20558;-87
2022/03/14 01:32:42;;;;;;;25.38;14.02;;;;;;;-0.35;75.22;101427.59;5109515;28;20048;-87
2022/03/14 01:35:11;;;;;;;29.83;14.60;;;;;;;-0.35;75.32;101422.28;5105580;27;20105;-83
2022/03/14 01:37:38;;;;;;;26.25;13.75;;;;;;;-0.30;74.48;101424.09;5109475;28;20047;-87
2022/03/14 01:40:08;;;;;;;28.13;15.05;;;;;;;-0.37;75.08;101432.84;5105957;27;20040;-87
2022/03/14 01:42:35;;;;;;;33.22;17.80;;;;;;;-0.36;74.47;101434.63;5108508;28;20044;-86
2022/03/14 01:45:05;;;;;;;32.50;17.17;;;;;;;-0.40;74.92;101422.19;5106522;27;20044;-87
2022/03/14 01:47:34;;;;;;;31.73;17.10;;;;;;;-0.34;75.00;101426.72;5107263;28;20070;-87
2022/03/14 01:50:01;;;;;;;33.10;17.48;;;;;;;-0.34;74.30;101424.94;5106618;27;20040;-87
2022/03/14 01:52:31;;;;;;;36.95;19.27;;;;;;;-0.46;74.84;101423.00;5107397;28;20043;-87
2022/03/14 01:54:58;;;;;;;46.30;25.38;;;;;;;-0.43;74.63;101432.78;5117125;27;20044;-86
2022/03/14 01:57:26;;;;;;;43.50;23.65;;;;;;;-0.38;74.75;101422.22;5107712;27;20384;-88
2022/03/14 01:59:54;;;;;;;38.33;21.25;;;;;;;-0.39;74.56;101423.97;5096754;28;20044;-87
2022/03/14 02:02:21;;;;;;;42.40;22.95;;;;;;;-0.45;74.99;101426.56;5105934;28;20056;-87
2022/03/14 02:04:49;;;;;;;32.97;18.77;;;;;;;-0.47;74.72;101420.31;5108399;27;20134;-87
2022/03/14 02:07:17;;;;;;;31.75;16.02;;;;;;;-0.42;75.21;101417.72;5105119;28;20039;-87
2022/03/14 02:09:45;;;;;;;31.70;16.88;;;;;;;-0.50;75.51;101423.81;5108965;27;20047;-84
2022/03/14 02:12:13;;;;;;;32.67;16.83;;;;;;;-0.52;75.13;101416.72;5104203;28;20097;-87
2022/03/14 02:14:41;;;;;;;42.55;22.00;;;;;;;-0.51;75.17;101423.81;5109567;27;20498;-87
2022/03/14 02:17:13;;;;;;;52.55;24.08;;;;;;;-0.59;75.23;101421.94;5103537;28;20559;-87
2022/03/14 02:19:42;;;;;;;55.22;23.00;;;;;;;-0.50;75.06;101425.59;5109552;27;20051;-87
2022/03/14 02:22:13;;;;;;;57.38;24.48;;;;;;;-0.45;75.06;101427.44;5107764;28;20036;-87
2022/03/14 02:24:42;;;;;;;56.03;22.42;;;;;;;-0.42;74.88;101415.97;5104764;28;20102;-87
2022/03/14 02:27:09;;;;;;;51.30;22.15;;;;;;;-0.45;75.14;101421.25;5107555;28;20071;-86
2022/03/14 02:29:37;;;;;;;42.83;19.33;;;;;;;-0.47;75.41;101420.31;5105812;27;20406;-86
2022/03/14 02:32:05;;;;;;;35.20;16.20;;;;;;;-0.54;75.85;101423.78;5106678;28;20044;-87
2022/03/14 02:34:32;;;;;;;34.15;16.40;;;;;;;-0.52;75.71;101424.69;5115252;27;20059;-86
2022/03/14 02:37:02;;;;;;;28.88;13.57;;;;;;;-0.62;76.16;101427.19;5106912;27;20479;-86
2022/03/14 02:39:33;;;;;;;25.25;13.35;;;;;;;-0.62;76.22;101434.25;5095704;28;20093;-85
2022/03/14 02:42:00;;;;;;;24.88;12.32;;;;;;;-0.65;76.22;101426.25;5104832;28;20047;-87
2022/03/14 02:44:28;;;;;;;27.92;13.18;;;;;;;-0.60;75.88;101429.88;5106936;28;20051;-87
2022/03/14 02:46:56;;;;;;;25.25;13.02;;;;;;;-0.64;75.80;101430.69;5104921;28;20414;-84
2022/03/14 02:49:23;;;;;;;27.75;14.88;;;;;;;-0.63;75.85;101430.69;5107756;27;20044;-88
2022/03/14 02:51:52;;;;;;;23.20;12.60;;;;;;;-0.59;75.92;101434.31;5108152;28;20047;-88
2022/03/14 02:54:20;;;;;;;23.02;11.98;;;;;;;-0.55;75.45;101436.13;5103664;28;20076;-86
2022/03/14 02:56:49;;;;;;;23.20;11.88;;;;;;;-0.65;75.84;101436.88;5107549;28;20108;-81
2022/03/14 02:59:17;;;;;;;24.38;12.38;;;;;;;-0.60;75.53;101436.09;5104092;28;20055;-86
2022/03/14 03:01:44;;;;;;;30.90;14.77;;;;;;;-0.55;75.76;101437.91;5106957;28;20040;-86
2022/03/14 03:04:12;;;;;;;32.60;14.38;;;;;;;-0.64;76.26;101439.53;5104915;27;20047;-86
2022/03/14 03:06:40;;;;;;;27.75;13.35;;;;;;;-0.60;75.79;101441.41;5105499;28;20047;-84
2022/03/14 03:09:07;;;;;;;32.22;15.77;;;;;;;-0.59;75.97;101443.19;5105751;27;20044;-84
2022/03/14 03:11:35;;;;;;;34.33;14.57;;;;;;;-0.56;76.19;101444.97;5105020;28;20052;-86
2022/03/14 03:14:04;;;;;;;22.20;11.68;;;;;;;-0.61;75.48;101442.25;5115251;28;20044;-80
2022/03/14 03:16:34;;;;;;;26.38;12.85;;;;;;;-0.63;76.00;101443.97;5106086;27;20047;-75
2022/03/14 03:19:01;;;;;;;23.30;11.13;;;;;;;-0.61;75.89;101450.22;5094989;28;20048;-83
2022/03/14 03:21:33;;;;;;;26.90;12.50;;;;;;;-0.59;75.70;101445.84;5103590;28;20391;-84
2022/03/14 03:24:01;;;;;;;25.02;11.80;;;;;;;-0.50;75.90;101452.16;5107194;27;20051;-78
2022/03/14 03:26:28;;;;;;;25.20;12.93;;;;;;;-0.57;75.79;101442.31;5103755;28;20394;-86
2022/03/14 03:28:56;;;;;;;24.15;12.05;;;;;;;-0.69;76.12;101450.97;5107079;28;20404;-86
2022/03/14 03:31:28;;;;;;;30.83;14.05;;;;;;;-0.75;76.20;101457.06;5102676;28;20043;-85
2022/03/14 03:33:56;;;;;;;23.67;11.48;;;;;;;-0.71;75.73;101460.66;5108009;27;20059;-87
2022/03/14 03:36:23;;;;;;;34.95;15.65;;;;;;;-0.61;76.14;101457.28;5101944;28;20051;-86
2022/03/14 03:38:51;;;;;;;31.65;14.50;;;;;;;-0.66;76.22;101457.19;5107570;27;20499;-86
2022/03/14 03:41:18;;;;;;;28.67;13.35;;;;;;;-0.73;76.46;101460.63;5102145;28;20047;-87
2022/03/14 03:43:46;;;;;;;25.67;12.20;;;;;;;-0.68;76.40;101458.06;5108660;27;20044;-87
2022/03/14 03:46:13;;;;;;;28.35;13.50;;;;;;;-0.67;76.47;101462.50;5101040;28;20051;-87
2022/03/14 03:48:42;;;;;;;27.85;13.27;;;;;;;-0.68;76.42;101464.25;5109287;27;20051;-85
2022/03/14 03:51:10;;;;;;;22.10;11.20;;;;;;;-0.59;75.70;101464.41;5100055;28;20051;-87
2022/03/14 03:53:37;;;;;;;31.55;13.77;;;;;;;-0.66;76.34;101462.50;5109895;27;20048;-87
2022/03/14 03:56:05;;;;;;;24.45;11.65;;;;;;;-0.65;76.32;101461.63;5094748;28;20087;-87
2022/03/14 03:58:33;;;;;;;34.53;15.40;;;;;;;-0.61;75.62;101470.56;5099099;28;20054;-86
2022/03/14 04:01:00;;;;;;;30.67;13.85;;;;;;;-0.67;76.00;101467.81;5110821;27;20048;-84
2022/03/14 04:03:28;;;;;;;25.80;12.82;;;;;;;-0.65;75.51;101468.72;5098147;28;20051;-85
2022/03/14 04:05:57;;;;;;;26.83;12.95;;;;;;;-0.67;76.12;101467.81;5111167;27;20067;-83
2022/03/14 04:08:29;;;;;;;26.70;12.88;;;;;;;-0.71;75.63;101474.81;5097307;28;20069;-85
2022/03/14 04:10:57;;;;;;;25.42;11.80;;;;;;;-0.83;76.10;101480.81;5111314;27;20097;-86
2022/03/14 04:13:29;;;;;;;24.52;10.65;;;;;;;-0.84;76.11;101483.44;5097024;28;20048;-84
2022/03/14 04:15:57;;;;;;;22.42;11.02;;;;;;;-0.77;75.78;101482.69;5112116;27;20050;-85
2022/03/14 04:18:25;;;;;;;26.27;12.38;;;;;;;-0.73;75.65;101487.16;5101326;28;20070;-84
2022/03/14 04:20:53;;;;;;;33.65;14.55;;;;;;;-0.86;76.02;101474.56;5107051;27;20521;-87
2022/03/14 04:23:23;;;;;;;32.10;15.63;;;;;;;-0.76;75.82;101488.03;5100401;28;20050;-87
2022/03/14 04:25:50;;;;;;;27.38;13.77;;;;;;;-0.76;75.30;101492.44;5108202;27;20044;-82
2022/03/14 04:28:18;;;;;;;56.10;26.65;;;;;;;-0.86;75.77;101486.06;5099972;28;20043;-85
2022/03/14 04:30:45;;;;;;;41.22;20.55;;;;;;;-0.84;75.56;101489.63;5112665;27;20383;-84
2022/03/14 04:33:13;;;;;;;40.05;20.15;;;;;;;-0.84;75.79;101496.72;5107814;27;20051;-84
2022/03/14 04:35:40;;;;;;;33.97;18.38;;;;;;;-0.83;75.77;101494.06;5093681;28;20043;-84
2022/03/14 04:38:08;;;;;;;27.90;15.98;;;;;;;-0.79;75.51;101490.63;5098243;28;20109;-83
2022/03/14 04:40:37;;;;;;;28.42;14.05;;;;;;;-0.78;75.46;101495.06;5109871;27;20047;-85
2022/03/14 04:43:05;;;;;;;26.33;13.00;;;;;;;-0.85;76.06;101493.16;5097584;28;20043;-85
2022/03/14 04:45:34;;;;;;;26.05;12.85;;;;;;;-0.81;76.18;101494.13;5110618;27;20044;-85
2022/03/14 04:48:03;;;;;;;25.20;13.77;;;;;;;-0.91;76.34;101504.56;5096741;28;20040;-84
2022/03/14 04:50:30;;;;;;;26.25;12.85;;;;;;;-0.87;76.23;101494.88;5111003;27;20036;-86
2022/03/14 04:52:58;;;;;;;25.52;12.68;;;;;;;-0.84;76.89;101509.97;5096190;28;20078;-86
2022/03/14 04:55:25;;;;;;;32.72;18.23;;;;;;;-0.81;75.80;101504.72;5111509;27;20044;-86
2022/03/14 04:57:54;;;;;;;25.08;12.27;;;;;;;-0.90;76.27;101501.06;5095243;28;20487;-84
2022/03/14 05:00:22;;;;;;;23.08;12.57;;;;;;;-0.82;76.67;101505.59;5108026;28;20052;-86
2022/03/14 05:02:50;;;;;;;30.23;15.38;;;;;;;-0.90;76.29;101506.34;5098931;28;20071;-86
2022/03/14 05:05:17;;;;;;;28.58;16.15;;;;;;;-0.90;76.46;101511.66;5108468;27;20044;-86
2022/03/14 05:07:45;;;;;;;39.10;21.10;;;;;;;-0.81;75.64;101507.38;5098389;28;20054;-86
2022/03/14 05:10:12;;;;;;;47.65;24.92;;;;;;;-0.91;75.80;101519.59;5113610;27;20047;-86
2022/03/14 05:12:40;;;;;;;40.50;20.50;;;;;;;-0.79;76.07;101508.31;5109216;28;20048;-86
2022/03/14 05:15:10;;;;;;;30.20;16.17;;;;;;;-0.71;75.54;101509.31;5093166;28;20051;-86
2022/03/14 05:17:38;;;;;;;24.70;12.85;;;;;;;-0.70;76.19;101508.44;5095590;28;20055;-86
2022/03/14 05:20:06;;;;;;;30.80;14.18;;;;;;;-0.63;75.53;101507.69;5110097;28;20048;-82
2022/03/14 05:22:34;;;;;;;32.15;17.38;;;;;;;-0.76;75.76;101500.38;5096016;28;20043;-85
2022/03/14 05:25:02;;;;;;;25.38;13.00;;;;;;;-0.70;75.51;101505.78;5110746;28;20067;-86
2022/03/14 05:27:30;;;;;;;27.25;12.85;;;;;;;-0.66;75.74;101506.75;5095545;28;20101;-87
2022/03/14 05:29:57;;;;;;;22.38;11.80;;;;;;;-0.75;76.02;101503.09;5111657;27;20043;-87
2022/03/14 05:32:26;;;;;;;26.63;11.25;;;;;;;-0.70;76.10;101511.09;5092800;28;20048;-85
2022/03/14 05:34:54;;;;;;;21.58;11.55;;;;;;;-0.62;75.40;101506.81;5109076;27;20078;-83
2022/03/14 05:37:21;;;;;;;23.38;11.48;;;;;;;-0.53;74.87;101508.72;5090174;28;20056;-85
2022/03/14 05:39:49;;;;;;;22.10;10.63;;;;;;;-0.56;74.99;101511.34;5110601;27;20071;-88
2022/03/14 05:42:17;;;;;;;22.25;11.05;;;;;;;-0.41;74.50;101507.13;5092258;28;20097;-89
2022/03/14 05:44:45;;;;;;;20.70;10.45;;;;;;;-0.39;74.41;101505.41;5112369;27;20047;-86
2022/03/14 05:47:12;;;;;;;21.13;11.18;;;;;;;-0.24;74.33;101496.75;5091835;28;20121;-83
2022/03/14 05:49:41;;;;;;;19.80;10.30;;;;;;;-0.24;74.66;101504.72;5131146;28;20054;-84
2022/03/14 05:52:09;;;;;;;21.20;10.13;;;;;;;-0.18;73.95;101511.03;5090988;27;20048;-77
2022/03/14 05:54:36;;;;;;;21.20;10.38;;;;;;;-0.12;74.44;101509.34;5088859;28;20120;-77
2022/03/14 05:57:05;;;;;;;22.60;10.32;;;;;;;-0.10;74.58;101515.56;5108136;28;20052;-80
2022/03/14 05:59:32;;;;;;;27.23;10.43;;;;;;;-0.10;74.30;101513.81;5090493;27;20147;-79
2022/03/14 06:01:59;;;;;;;19.65;9.68;;;;;;;0.02;73.95;101515.75;5106939;28;20074;-87
2022/03/14 06:04:27;;;;;;;21.75;10.35;;;;;;;0.04;73.96;101516.66;5109495;27;20044;-84
2022/03/14 06:06:57;;;;;;;20.08;10.23;;;;;;;0.10;73.37;101514.09;5090362;28;20075;-82
2022/03/14 06:09:25;;;;;;;22.35;9.73;;;;;;;0.03;74.15;101521.94;5113499;28;20449;-86
2022/03/14 06:11:53;;;;;;;22.20;10.48;;;;;;;0.07;74.38;101514.06;5093607;28;20055;-83
2022/03/14 06:14:20;;;;;;;21.95;10.30;;;;;;;0.24;73.86;101521.34;5113186;27;20568;-82
2022/03/14 06:16:48;;;;;;;21.50;10.27;;;;;;;0.19;73.47;101515.09;5092774;27;20047;-85
2022/03/14 06:19:16;;;;;;;18.83;10.20;;;;;;;0.20;73.33;101522.19;5112708;28;20051;-85
2022/03/14 06:21:43;;;;;;;19.80;9.88;;;;;;;0.49;73.25;101517.22;5093899;27;20047;-83
2022/03/14 06:24:12;;;;;;;20.15;9.77;;;;;;;0.19;73.52;101523.06;5108657;28;20108;-79
2022/03/14 06:26:40;;;;;;;19.10;9.60;;;;;;;0.33;73.28;101521.47;5098197;27;20044;-83
2022/03/14 06:29:08;;;;;;;19.20;9.82;;;;;;;0.45;73.36;101530.50;5124582;27;20101;-75
2022/03/14 06:31:35;;;;;;;22.92;10.90;;;;;;;0.43;73.93;101527.78;5095847;28;20601;-82
2022/03/14 06:34:03;;;;;;;21.02;9.82;;;;;;;0.57;71.92;101520.88;5100279;28;20056;-76
2022/03/14 06:36:31;;;;;;;22.00;10.20;;;;;;;0.50;72.99;101523.44;5111341;28;20048;-82
2022/03/14 06:38:59;;;;;;;24.85;10.65;;;;;;;0.63;73.69;101530.69;5099762;28;20501;-82
2022/03/14 06:41:29;;;;;;;19.83;10.02;;;;;;;0.87;72.80;101523.88;5107678;28;20093;-84
2022/03/14 06:43:57;;;;;;;20.15;9.55;;;;;;;0.79;72.07;101536.19;5102835;28;20043;-79
2022/03/14 06:46:25;;;;;;;20.15;10.23;;;;;;;0.75;73.38;101529.03;5108264;27;20044;-84
2022/03/14 06:48:52;;;;;;;19.30;9.30;;;;;;;0.75;73.06;101529.94;5102624;28;20411;-83
2022/03/14 06:51:21;;;;;;;25.27;10.30;;;;;;;0.83;72.45;101528.25;5108885;27;20048;-84
2022/03/14 06:53:49;;;;;;;19.10;10.10;;;;;;;1.30;70.78;101524.28;5101828;28;20067;-82
2022/03/14 06:56:17;;;;;;;19.15;10.45;;;;;;;1.06;71.59;101524.97;5109490;27;20047;-84
2022/03/14 06:58:46;;;;;;;19.17;9.82;;;;;;;1.40;70.64;101525.25;5101366;28;20047;-81
2022/03/14 07:01:13;;;;;;;19.15;9.70;;;;;;;1.08;72.31;101528.53;5110498;27;20542;-84
2022/03/14 07:03:41;;;;;;;43.90;20.65;;;;;;;1.25;72.46;101530.44;5100705;28;20047;-81
2022/03/14 07:06:09;;;;;;;72.22;27.60;;;;;;;1.29;72.15;101532.25;5120482;27;20435;-83
2022/03/14 07:08:36;;;;;;;77.88;28.83;;;;;;;1.30;72.49;101537.59;5127277;27;20048;-84
2022/03/14 07:11:04;;;;;;;26.35;12.60;;;;;;;1.32;72.29;101539.38;5095107;28;20044;-81
2022/03/14 07:13:31;;;;;;;34.95;16.27;;;;;;;1.59;71.52;101544.06;5096285;28;20460;-79
2022/03/14 07:16:00;;;;;;;40.05;19.10;;;;;;;1.65;70.93;101545.88;5110621;27;20077;-81
2022/03/14 07:18:30;;;;;;;100.00;46.05;;;;;;;1.69;70.91;101548.56;5098612;28;20052;-77
2022/03/14 07:20:57;;;;;;;92.53;38.40;;;;;;;1.88;70.63;101548.72;5104216;27;20044;-84
2022/03/14 07:23:25;;;;;;;58.08;24.23;;;;;;;2.15;69.23;101549.75;5099035;28;20039;-82
2022/03/14 07:25:53;;;;;;;66.03;27.50;;;;;;;1.99;69.39;101557.66;5106707;27;20479;-85
2022/03/14 07:28:20;;;;;;;29.33;13.10;;;;;;;1.97;69.96;101555.84;5098391;28;20040;-82
2022/03/14 07:30:48;;;;;;;183.75;64.60;;;;;;;2.24;68.91;101549.78;5110955;27;20067;-77
2022/03/14 07:33:18;;;;;;;33.03;14.82;;;;;;;2.25;68.43;101556.94;5111571;27;20063;-78
2022/03/14 07:35:46;;;;;;;85.35;29.27;;;;;;;2.21;68.95;101557.78;5116033;27;20047;-80
2022/03/14 07:38:14;;;;;;;30.48;14.57;;;;;;;2.42;67.79;101542.78;5114210;27;20051;-84
2022/03/14 07:40:42;;;;;;;21.70;11.18;;;;;;;2.27;67.70;101552.50;5114219;27;20047;-80
2022/03/14 07:43:10;;;;;;;19.77;10.45;;;;;;;2.26;67.77;101549.81;5118098;27;20521;-76
2022/03/14 07:45:38;;;;;;;68.05;25.73;;;;;;;2.53;67.77;101546.38;5115873;27;20039;-79
2022/03/14 07:48:10;;;;;;;55.95;24.17;;;;;;;2.74;67.42;101550.91;5123385;27;20035;-80
2022/03/14 07:50:41;;;;;;;32.85;14.35;;;;;;;2.83;67.46;101549.16;5117950;27;20406;-76
2022/03/14 07:53:09;;;;;;;20.83;11.05;;;;;;;2.69;67.91;101550.00;5120597;27;20084;-77
2022/03/14 07:55:38;;;;;;;51.05;23.00;;;;;;;3.07;65.55;101545.69;5125290;27;20039;-78
2022/03/14 07:58:06;;;;;;;24.17;12.55;;;;;;;3.15;64.80;101549.25;5120265;27;20131;-77
2022/03/14 08:00:34;;;;;;;20.15;10.88;;;;;;;3.15;64.03;101546.59;5125246;27;20130;-78
2022/03/14 08:03:02;;;;;;;19.67;10.27;;;;;;;2.84;64.54;101549.19;5120118;27;20401;-79
2022/03/14 08:05:29;;;;;;;19.40;10.75;;;;;;;3.04;63.62;101546.56;5124220;27;20534;-76
2022/03/14 08:08:00;;;;;;;20.13;9.88;;;;;;;2.94;63.70;101549.19;5124945;27;20116;-78
2022/03/14 08:10:29;;;;;;;25.35;13.23;;;;;;;3.30;63.29;101545.72;5118172;27;20043;-84
2022/03/14 08:12:58;;;;;;;18.77;10.73;;;;;;;3.33;62.37;101547.47;5114678;27;20043;-80
2022/03/14 08:15:27;;;;;;;18.13;9.57;;;;;;;3.38;62.97;101543.03;5110831;28;20044;-79
2022/03/14 08:17:59;;;;;;;22.83;10.57;;;;;;;3.55;62.54;101555.53;5113933;27;20051;-81
2022/03/14 08:20:27;;;;;;;20.15;10.43;;;;;;;3.58;62.67;101552.84;5111881;28;20047;-82
2022/03/14 08:22:56;;;;;;;21.77;10.00;;;;;;;3.48;63.00;101549.28;5113099;27;20463;-81
2022/03/14 08:25:34;;;;;;;20.08;10.55;;;;;;;3.74;61.88;101554.59;5109903;28;20043;-76
2022/03/14 08:28:02;;;;;;;18.00;9.93;;;;;;;3.88;61.53;101553.72;5110277;28;20043;-76
2022/03/14 08:30:34;;;;;;;17.50;9.45;;;;;;;3.94;60.66;101550.13;5112727;27;20116;-79
2022/03/14 08:33:02;;;;;;;21.63;10.48;;;;;;;3.65;60.38;101553.72;5109267;28;20040;-75
2022/03/14 08:35:30;;;;;;;19.75;9.80;;;;;;;3.78;61.83;101542.16;5109115;28;20064;-81
2022/03/14 08:37:58;;;;;;;19.80;10.10;;;;;;;4.00;61.46;101543.00;5093748;28;20044;-78
2022/03/14 08:40:28;;;;;;;18.42;9.65;;;;;;;3.91;60.53;101549.25;5093110;28;20058;-82
2022/03/14 08:42:57;;;;;;;19.75;10.05;;;;;;;3.85;60.26;101546.59;5093201;28;20094;-81
2022/03/14 08:45:29;;;;;;;17.90;9.57;;;;;;;4.09;60.68;101541.19;5093636;28;20036;-75
2022/03/14 08:47:57;;;;;;;21.17;11.02;;;;;;;3.92;59.48;101532.31;5094430;28;20070;-82
2022/03/14 08:50:27;;;;;;;19.10;10.02;;;;;;;3.77;60.03;101543.91;5096143;28;20101;-79
2022/03/14 08:52:54;;;;;;;19.17;10.23;;;;;;;4.03;60.28;101548.34;5112113;27;20035;-76
2022/03/14 08:55:22;;;;;;;17.92;10.18;;;;;;;4.10;60.29;101538.53;5109821;28;20100;-76
2022/03/14 08:57:51;;;;;;;16.75;9.40;;;;;;;4.49;59.50;101546.44;5112984;27;20490;-84
2022/03/14 09:00:21;;;;;;;20.50;10.48;;;;;;;4.75;58.45;101537.41;5109776;28;20086;-79
2022/03/14 09:02:48;;;;;;;20.42;10.45;;;;;;;4.48;57.53;101544.66;5111894;27;20040;-83
2022/03/14 09:05:16;;;;;;;19.88;10.30;;;;;;;4.25;58.51;101550.06;5111884;27;20048;-78
2022/03/14 09:07:44;;;;;;;20.98;10.23;;;;;;;4.15;58.54;101549.19;5109375;28;20436;-77
2022/03/14 09:10:13;;;;;;;18.38;10.13;;;;;;;4.37;57.79;101546.47;5111509;27;20043;-77
2022/03/14 09:12:42;;;;;;;20.02;10.52;;;;;;;4.39;58.71;101548.22;5112035;27;20044;-82
2022/03/14 09:15:11;;;;;;;21.08;11.40;;;;;;;4.39;58.50;101548.22;5111684;27;20043;-77
2022/03/14 09:17:46;;;;;;;19.38;10.48;;;;;;;4.53;57.27;101550.00;5109288;28;20050;-77
2022/03/14 09:20:15;;;;;;;18.65;10.10;;;;;;;4.73;57.68;101555.25;5112173;27;20048;-77
2022/03/14 09:22:45;;;;;;;23.75;10.70;;;;;;;4.68;57.43;101549.00;5111531;27;20043;-74
2022/03/14 09:25:14;;;;;;;20.23;10.43;;;;;;;4.52;57.02;101556.25;5112251;27;20049;-75
2022/03/14 09:27:42;;;;;;;20.02;10.77;;;;;;;4.60;57.48;101552.63;5111555;27;20043;-77
2022/03/14 09:30:13;;;;;;;21.88;11.10;;;;;;;4.76;56.97;101547.22;5111650;28;20046;-77
2022/03/14 09:32:40;;;;;;;20.40;11.00;;;;;;;4.73;57.06;101555.25;5110660;28;20047;-77
2022/03/14 09:35:09;;;;;;;18.85;10.43;;;;;;;4.66;57.25;101557.06;5108022;27;20043;-76
2022/03/14 09:37:38;;;;;;;18.70;10.15;;;;;;;4.76;56.81;101549.88;5108363;27;20050;-77
2022/03/14 09:40:06;;;;;;;21.27;10.50;;;;;;;4.87;56.75;101545.34;5107887;27;20084;-76
2022/03/14 09:42:36;;;;;;;17.13;9.65;;;;;;;4.78;56.58;101548.09;5106144;28;20039;-76
2022/03/14 09:45:05;;;;;;;18.08;9.85;;;;;;;4.85;56.37;101551.59;5114899;27;20043;-77
2022/03/14 09:47:37;;;;;;;19.63;9.65;;;;;;;4.69;56.14;101556.13;5119813;27;20078;-75
2022/03/14 09:50:07;;;;;;;17.88;9.98;;;;;;;4.71;55.36;101555.25;5123631;27;20036;-77
2022/03/14 09:52:37;;;;;;;18.52;9.82;;;;;;;4.91;55.83;101555.16;5122190;27;20413;-77
2022/03/14 09:55:07;;;;;;;18.27;9.40;;;;;;;5.05;55.92;101557.75;5118497;27;20100;-77
2022/03/14 09:57:34;;;;;;;21.85;10.38;;;;;;;4.96;55.53;101540.84;5122291;27;20054;-77
2022/03/14 10:00:02;;;;;;;18.80;9.88;;;;;;;5.11;56.14;101538.09;5111718;27;20044;-77
2022/03/14 10:02:30;;;;;;;18.08;9.60;;;;;;;5.38;56.25;101540.56;5114373;27;20050;-77
2022/03/14 10:04:59;;;;;;;17.30;9.35;;;;;;;5.33;54.40;101543.28;5111844;27;20043;-78
2022/03/14 10:07:27;;;;;;;19.73;10.27;;;;;;;5.27;55.05;101535.28;5108771;28;20048;-77
2022/03/14 10:09:56;;;;;;;20.48;10.43;;;;;;;5.48;53.93;101532.44;5111704;27;20068;-78
2022/03/14 10:12:23;;;;;;;22.90;10.10;;;;;;;5.43;54.21;101533.38;5111451;28;20130;-77
2022/03/14 10:14:51;;;;;;;20.52;10.02;;;;;;;5.61;53.83;101543.06;5111231;27;20047;-76
2022/03/14 10:17:19;;;;;;;22.83;11.27;;;;;;;5.75;53.73;101535.78;5111415;27;20108;-76
2022/03/14 10:19:54;;;;;;;19.58;10.40;;;;;;;5.95;53.47;101535.59;5109132;28;20039;-77
2022/03/14 10:22:24;;;;;;;36.50;12.88;;;;;;;6.09;52.61;101534.59;5114559;27;20130;-79
2022/03/14 10:25:03;;;;;;;18.42;9.68;;;;;;;6.17;52.85;101532.72;5113412;27;20046;-78
2022/03/14 10:27:31;;;;;;;23.83;11.95;;;;;;;6.43;52.56;101528.84;5112698;28;20043;-79
2022/03/14 10:29:58;;;;;;;36.53;15.95;;;;;;;6.51;51.86;101532.31;5114473;28;20035;-78
2022/03/14 10:32:34;;;;;;;30.00;14.27;;;;;;;6.54;52.25;101533.22;5114758;27;20039;-78
2022/03/14 10:35:04;;;;;;;25.77;12.45;;;;;;;6.69;51.70;101530.31;5114128;27;20081;-79
2022/03/14 10:37:34;;;;;;;18.15;8.80;;;;;;;6.70;52.26;101531.19;5114734;27;20079;-78
2022/03/14 10:40:03;;;;;;;19.30;9.65;;;;;;;6.74;51.76;101524.88;5114330;27;20086;-79
2022/03/14 10:42:38;;;;;;;32.25;14.70;;;;;;;6.85;50.96;101516.66;5114401;27;20047;-79
2022/03/14 10:45:11;;;;;;;18.73;10.18;;;;;;;6.65;50.56;101520.53;5113514;28;20070;-79
2022/03/14 10:47:44;;;;;;;19.10;10.05;;;;;;;6.73;50.80;101515.94;5114235;27;20043;-77
2022/03/14 10:50:29;;;;;;;19.25;10.18;;;;;;;6.96;50.95;101520.09;5114315;27;20051;-78
2022/03/14 10:53:09;;;;;;;21.42;9.48;;;;;;;6.96;49.91;101512.91;5113670;28;20498;-76
2022/03/14 10:55:41;;;;;;;20.13;10.35;;;;;;;6.86;50.57;101523.81;5094593;28;20483;-78
2022/03/14 10:58:10;;;;;;;19.70;9.48;;;;;;;7.02;50.88;101516.41;5094781;28;20048;-76
2022/03/14 11:00:52;;;;;;;19.42;9.98;;;;;;;7.19;50.07;101509.00;5094850;28;20123;-77
2022/03/14 11:03:27;;;;;;;19.25;10.27;;;;;;;7.15;49.50;101511.75;5109002;28;20052;-77
2022/03/14 11:06:00;;;;;;;18.17;9.25;;;;;;;7.31;48.66;101507.91;5114830;27;20035;-77
2022/03/14 11:08:34;;;;;;;21.08;10.60;;;;;;;7.22;49.02;101505.34;5111774;28;20052;-77
2022/03/14 11:11:02;;;;;;;17.63;9.45;;;;;;;7.27;50.12;101510.69;5114006;28;20051;-78
2022/03/14 11:13:31;;;;;;;17.83;9.35;;;;;;;7.33;48.42;101507.88;5113736;27;20047;-77
2022/03/14 11:15:58;;;;;;;17.42;9.23;;;;;;;7.32;48.93;101501.59;5113480;27;20058;-77
2022/03/14 11:18:26;;;;;;;21.67;10.80;;;;;;;7.45;48.88;101496.03;5113623;27;20379;-77
2022/03/14 11:20:54;;;;;;;19.55;9.65;;;;;;;7.61;49.94;101502.06;5113237;27;20046;-77